sensor_id;sensor_type;location;lat;lon;timestamp;temperature;humidity
16491;DHT22;8356;51.214;3.270;2022-09-09T00:04:35;486.50;2380.80
16491;DHT22;8356;51.214;3.270;2022-09-09T00:07:21;486.40;2380.80
16491;DHT22;8356;51.214;3.270;2022-09-09T00:09:59;461.70;2380.80
16491;DHT22;8356;51.214;3.270;2022-09-09T00:28:38;461.70;2380.80
16491;DHT22;8356;51.214;3.270;2022-09-09T00:31:13;461.60;2380.80
16491;DHT22;8356;51.214;3.270;2022-09-09T00:33:40;461.60;2380.80
16491;DHT22;8356;51.214;3.270;2022-09-09T00:36:13;461.60;2380.80
16491;DHT22;8356;51.214;3.270;2022-09-09T00:38:50;461.60;2380.80
16491;DHT22;8356;51.214;3.270;2022-09-09T00:44:11;461.50;2380.80
16491;DHT22;8356;51.214;3.270;2022-09-09T00:50:11;461.50;2380.80
16491;DHT22;8356;51.214;3.270;2022-09-09T00:52:59;461.50;2380.80
16491;DHT22;8356;51.214;3.270;2022-09-09T00:58:30;461.50;2380.80
16491;DHT22;8356;51.214;3.270;2022-09-09T01:03:35;461.50;2380.80
16491;DHT22;8356;51.214;3.270;2022-09-09T01:11:22;461.50;2380.80
16491;DHT22;8356;51.214;3.270;2022-09-09T01:13:56;461.40;2380.80
16491;DHT22;8356;51.214;3.270;2022-09-09T01:16:25;461.40;2380.80
16491;DHT22;8356;51.214;3.270;2022-09-09T01:18:52;461.50;2380.80
16491;DHT22;8356;51.214;3.270;2022-09-09T01:21:41;461.50;2380.80
16491;DHT22;8356;51.214;3.270;2022-09-09T01:24:27;461.40;2380.80
16491;DHT22;8356;51.214;3.270;2022-09-09T01:27:01;461.50;2380.80
16491;DHT22;8356;51.214;3.270;2022-09-09T01:29:28;461.50;2380.80
16491;DHT22;8356;51.214;3.270;2022-09-09T01:34:45;461.40;2380.80
16491;DHT22;8356;51.214;3.270;2022-09-09T01:37:12;461.50;2380.80
16491;DHT22;8356;51.214;3.270;2022-09-09T01:39:40;461.50;2380.80
16491;DHT22;8356;51.214;3.270;2022-09-09T01:42:09;461.50;2380.80
16491;DHT22;8356;51.214;3.270;2022-09-09T01:44:37;461.50;2380.80
16491;DHT22;8356;51.214;3.270;2022-09-09T01:47:03;461.40;2380.80
16491;DHT22;8356;51.214;3.270;2022-09-09T01:49:29;461.40;2380.80
16491;DHT22;8356;51.214;3.270;2022-09-09T01:51:56;461.40;2380.80
16491;DHT22;8356;51.214;3.270;2022-09-09T01:54:26;461.30;2380.80
16491;DHT22;8356;51.214;3.270;2022-09-09T02:00:03;461.20;2380.80
16491;DHT22;8356;51.214;3.270;2022-09-09T02:05:37;461.20;2380.80
16491;DHT22;8356;51.214;3.270;2022-09-09T02:08:17;461.10;2380.80
16491;DHT22;8356;51.214;3.270;2022-09-09T02:11:23;461.10;2380.80
16491;DHT22;8356;51.214;3.270;2022-09-09T02:13:53;461.20;2380.80
16491;DHT22;8356;51.214;3.270;2022-09-09T02:16:39;461.20;2380.80
16491;DHT22;8356;51.214;3.270;2022-09-09T02:19:15;461.10;2380.80
16491;DHT22;8356;51.214;3.270;2022-09-09T02:21:44;461.20;2380.80
16491;DHT22;8356;51.214;3.270;2022-09-09T02:24:11;461.20;2380.80
16491;DHT22;8356;51.214;3.270;2022-09-09T02:26:41;461.20;2380.80
16491;DHT22;8356;51.214;3.270;2022-09-09T02:29:17;461.20;2380.80
16491;DHT22;8356;51.214;3.270;2022-09-09T02:31:46;461.10;2380.80
16491;DHT22;8356;51.214;3.270;2022-09-09T02:34:14;461.20;2380.80
16491;DHT22;8356;51.214;3.270;2022-09-09T02:36:42;461.30;2380.80
16491;DHT22;8356;51.214;3.270;2022-09-09T02:39:08;461.30;2380.80
16491;DHT22;8356;51.214;3.270;2022-09-09T02:41:38;461.20;2380.80
16491;DHT22;8356;51.214;3.270;2022-09-09T02:44:15;461.30;2380.80
16491;DHT22;8356;51.214;3.270;2022-09-09T02:47:04;461.20;2380.80
16491;DHT22;8356;51.214;3.270;2022-09-09T02:52:21;461.20;2380.80
16491;DHT22;8356;51.214;3.270;2022-09-09T02:54:57;461.20;2380.80
16491;DHT22;8356;51.214;3.270;2022-09-09T02:57:29;461.20;2380.80
16491;DHT22;8356;51.214;3.270;2022-09-09T02:59:57;461.20;2380.80
16491;DHT22;8356;51.214;3.270;2022-09-09T03:02:24;461.30;2380.80
16491;DHT22;8356;51.214;3.270;2022-09-09T03:04:50;461.30;2380.80
16491;DHT22;8356;51.214;3.270;2022-09-09T03:07:18;461.40;2380.80
16491;DHT22;8356;51.214;3.270;2022-09-09T03:09:44;461.30;2380.80
16491;DHT22;8356;51.214;3.270;2022-09-09T03:12:10;461.40;2380.80
16491;DHT22;8356;51.214;3.270;2022-09-09T03:14:37;461.40;2380.80
16491;DHT22;8356;51.214;3.270;2022-09-09T03:17:04;461.40;2380.80
16491;DHT22;8356;51.214;3.270;2022-09-09T03:19:30;461.50;2380.80
16491;DHT22;8356;51.214;3.270;2022-09-09T03:21:57;461.40;2380.80
16491;DHT22;8356;51.214;3.270;2022-09-09T03:24:22;461.40;2380.80
16491;DHT22;8356;51.214;3.270;2022-09-09T03:26:48;461.40;2380.80
16491;DHT22;8356;51.214;3.270;2022-09-09T03:29:16;461.40;2380.80
16491;DHT22;8356;51.214;3.270;2022-09-09T03:31:43;461.40;2380.80
16491;DHT22;8356;51.214;3.270;2022-09-09T03:34:08;461.40;2380.80
16491;DHT22;8356;51.214;3.270;2022-09-09T03:36:34;461.40;2380.80
16491;DHT22;8356;51.214;3.270;2022-09-09T03:39:00;461.40;2380.80
16491;DHT22;8356;51.214;3.270;2022-09-09T03:41:28;461.40;2380.80
16491;DHT22;8356;51.214;3.270;2022-09-09T03:43:54;461.60;2380.80
16491;DHT22;8356;51.214;3.270;2022-09-09T03:46:22;461.30;2380.80
16491;DHT22;8356;51.214;3.270;2022-09-09T03:48:47;461.30;2380.80
16491;DHT22;8356;51.214;3.270;2022-09-09T03:51:13;461.30;2380.80
16491;DHT22;8356;51.214;3.270;2022-09-09T03:53:39;461.30;2380.80
16491;DHT22;8356;51.214;3.270;2022-09-09T03:56:06;461.30;2380.80
16491;DHT22;8356;51.214;3.270;2022-09-09T03:58:36;461.30;2380.80
16491;DHT22;8356;51.214;3.270;2022-09-09T04:01:03;461.30;2380.80
16491;DHT22;8356;51.214;3.270;2022-09-09T04:03:29;461.20;2380.80
16491;DHT22;8356;51.214;3.270;2022-09-09T04:05:57;461.20;2380.80
16491;DHT22;8356;51.214;3.270;2022-09-09T04:08:23;461.20;2380.80
16491;DHT22;8356;51.214;3.270;2022-09-09T04:10:53;461.20;2380.80
16491;DHT22;8356;51.214;3.270;2022-09-09T04:13:19;461.20;2380.80
16491;DHT22;8356;51.214;3.270;2022-09-09T04:15:52;461.20;2380.80
16491;DHT22;8356;51.214;3.270;2022-09-09T04:18:18;461.20;2380.80
16491;DHT22;8356;51.214;3.270;2022-09-09T04:20:49;461.20;2380.80
16491;DHT22;8356;51.214;3.270;2022-09-09T04:23:16;461.10;2380.80
16491;DHT22;8356;51.214;3.270;2022-09-09T04:25:46;461.10;2380.80
16491;DHT22;8356;51.214;3.270;2022-09-09T04:28:13;461.00;2380.80
16491;DHT22;8356;51.214;3.270;2022-09-09T04:30:39;461.10;2380.80
16491;DHT22;8356;51.214;3.270;2022-09-09T04:33:06;460.80;2380.80
16491;DHT22;8356;51.214;3.270;2022-09-09T04:35:32;461.00;2380.80
16491;DHT22;8356;51.214;3.270;2022-09-09T04:37:58;461.00;2380.80
16491;DHT22;8356;51.214;3.270;2022-09-09T04:40:24;461.00;2380.80
16491;DHT22;8356;51.214;3.270;2022-09-09T04:42:50;461.00;2380.80
16491;DHT22;8356;51.214;3.270;2022-09-09T04:45:17;461.00;2380.80
16491;DHT22;8356;51.214;3.270;2022-09-09T04:47:43;461.00;2380.80
16491;DHT22;8356;51.214;3.270;2022-09-09T04:50:09;461.00;2380.80
16491;DHT22;8356;51.214;3.270;2022-09-09T04:52:35;461.00;2380.80
16491;DHT22;8356;51.214;3.270;2022-09-09T04:55:01;461.00;2380.80
16491;DHT22;8356;51.214;3.270;2022-09-09T04:57:27;460.90;2380.80
16491;DHT22;8356;51.214;3.270;2022-09-09T04:59:54;461.00;2380.80
16491;DHT22;8356;51.214;3.270;2022-09-09T05:02:19;461.00;2380.80
16491;DHT22;8356;51.214;3.270;2022-09-09T05:04:45;460.90;2380.80
16491;DHT22;8356;51.214;3.270;2022-09-09T05:07:11;460.90;2380.80
16491;DHT22;8356;51.214;3.270;2022-09-09T05:09:36;460.90;2380.80
16491;DHT22;8356;51.214;3.270;2022-09-09T05:12:02;461.00;2380.80
16491;DHT22;8356;51.214;3.270;2022-09-09T05:14:28;461.00;2380.80
16491;DHT22;8356;51.214;3.270;2022-09-09T05:16:55;461.00;2380.80
16491;DHT22;8356;51.214;3.270;2022-09-09T05:19:21;461.00;2380.80
16491;DHT22;8356;51.214;3.270;2022-09-09T05:21:47;461.00;2380.80
16491;DHT22;8356;51.214;3.270;2022-09-09T05:24:13;461.00;2380.80
16491;DHT22;8356;51.214;3.270;2022-09-09T05:26:38;461.00;2380.80
16491;DHT22;8356;51.214;3.270;2022-09-09T05:29:04;461.00;2380.80
16491;DHT22;8356;51.214;3.270;2022-09-09T05:31:30;461.00;2380.80
16491;DHT22;8356;51.214;3.270;2022-09-09T05:33:56;461.00;2380.80
16491;DHT22;8356;51.214;3.270;2022-09-09T05:36:22;461.00;2380.80
16491;DHT22;8356;51.214;3.270;2022-09-09T05:38:49;461.00;2380.80
16491;DHT22;8356;51.214;3.270;2022-09-09T05:41:16;461.00;2380.80
16491;DHT22;8356;51.214;3.270;2022-09-09T05:43:43;461.00;2380.80
16491;DHT22;8356;51.214;3.270;2022-09-09T05:46:23;461.00;2380.80
16491;DHT22;8356;51.214;3.270;2022-09-09T05:48:50;461.00;2380.80
16491;DHT22;8356;51.214;3.270;2022-09-09T05:51:19;461.10;2380.80
16491;DHT22;8356;51.214;3.270;2022-09-09T05:53:47;461.10;2380.80
16491;DHT22;8356;51.214;3.270;2022-09-09T05:56:21;461.10;2380.80
16491;DHT22;8356;51.214;3.270;2022-09-09T05:58:48;461.10;2380.80
16491;DHT22;8356;51.214;3.270;2022-09-09T06:01:17;461.10;2380.80
16491;DHT22;8356;51.214;3.270;2022-09-09T06:03:44;461.10;2380.80
16491;DHT22;8356;51.214;3.270;2022-09-09T06:06:13;461.10;2380.80
16491;DHT22;8356;51.214;3.270;2022-09-09T06:08:41;461.20;2380.80
16491;DHT22;8356;51.214;3.270;2022-09-09T06:11:23;461.10;2380.80
16491;DHT22;8356;51.214;3.270;2022-09-09T06:13:49;461.20;2380.80
16491;DHT22;8356;51.214;3.270;2022-09-09T06:16:22;461.10;2380.80
16491;DHT22;8356;51.214;3.270;2022-09-09T06:18:49;461.10;2380.80
16491;DHT22;8356;51.214;3.270;2022-09-09T06:21:21;461.20;2380.80
16491;DHT22;8356;51.214;3.270;2022-09-09T06:23:47;461.30;2380.80
16491;DHT22;8356;51.214;3.270;2022-09-09T06:26:20;461.30;2380.80
16491;DHT22;8356;51.214;3.270;2022-09-09T06:28:47;461.40;2380.80
16491;DHT22;8356;51.214;3.270;2022-09-09T06:31:15;461.40;2380.80
16491;DHT22;8356;51.214;3.270;2022-09-09T06:33:48;461.40;2380.80
16491;DHT22;8356;51.214;3.270;2022-09-09T06:36:23;461.50;2380.80
16491;DHT22;8356;51.214;3.270;2022-09-09T06:38:48;461.50;2380.80
16491;DHT22;8356;51.214;3.270;2022-09-09T06:41:16;461.50;2380.80
16491;DHT22;8356;51.214;3.270;2022-09-09T06:43:42;461.60;2380.80
16491;DHT22;8356;51.214;3.270;2022-09-09T06:46:13;461.50;2380.80
16491;DHT22;8356;51.214;3.270;2022-09-09T06:48:40;461.50;2380.80
16491;DHT22;8356;51.214;3.270;2022-09-09T06:53:37;461.50;2380.80
16491;DHT22;8356;51.214;3.270;2022-09-09T06:56:22;461.50;2380.80
16491;DHT22;8356;51.214;3.270;2022-09-09T06:58:50;461.40;2380.80
16491;DHT22;8356;51.214;3.270;2022-09-09T07:01:20;461.40;2380.80
16491;DHT22;8356;51.214;3.270;2022-09-09T07:03:49;461.20;2380.80
16491;DHT22;8356;51.214;3.270;2022-09-09T07:06:18;461.20;2380.80
16491;DHT22;8356;51.214;3.270;2022-09-09T07:08:48;461.30;2380.80
16491;DHT22;8356;51.214;3.270;2022-09-09T07:11:13;461.30;2380.80
16491;DHT22;8356;51.214;3.270;2022-09-09T07:13:39;461.30;2380.80
16491;DHT22;8356;51.214;3.270;2022-09-09T07:16:12;461.30;2380.80
16491;DHT22;8356;51.214;3.270;2022-09-09T07:18:39;461.30;2380.80
16491;DHT22;8356;51.214;3.270;2022-09-09T07:21:05;461.20;2380.80
16491;DHT22;8356;51.214;3.270;2022-09-09T07:23:32;461.20;2380.80
16491;DHT22;8356;51.214;3.270;2022-09-09T07:25:58;461.20;2380.80
16491;DHT22;8356;51.214;3.270;2022-09-09T07:28:24;461.30;2380.80
16491;DHT22;8356;51.214;3.270;2022-09-09T07:30:59;461.30;2380.80
16491;DHT22;8356;51.214;3.270;2022-09-09T07:33:27;461.30;2380.80
16491;DHT22;8356;51.214;3.270;2022-09-09T07:36:09;460.80;2380.80
16491;DHT22;8356;51.214;3.270;2022-09-09T07:38:43;461.30;2380.80
16491;DHT22;8356;51.214;3.270;2022-09-09T07:41:13;461.30;2380.80
16491;DHT22;8356;51.214;3.270;2022-09-09T07:43:43;461.30;2380.80
16491;DHT22;8356;51.214;3.270;2022-09-09T07:46:10;461.30;2380.80
16491;DHT22;8356;51.214;3.270;2022-09-09T07:48:38;461.20;2380.80
16491;DHT22;8356;51.214;3.270;2022-09-09T07:51:09;461.30;2380.80
16491;DHT22;8356;51.214;3.270;2022-09-09T07:53:36;461.30;2380.80
16491;DHT22;8356;51.214;3.270;2022-09-09T07:56:11;461.30;2380.80
16491;DHT22;8356;51.214;3.270;2022-09-09T07:58:38;461.20;2380.80
16491;DHT22;8356;51.214;3.270;2022-09-09T08:01:22;461.20;2380.80
16491;DHT22;8356;51.214;3.270;2022-09-09T08:03:54;461.20;2380.80
16491;DHT22;8356;51.214;3.270;2022-09-09T08:06:20;461.20;2380.80
16491;DHT22;8356;51.214;3.270;2022-09-09T08:08:50;461.20;2380.80
16491;DHT22;8356;51.214;3.270;2022-09-09T08:11:17;461.30;2380.80
16491;DHT22;8356;51.214;3.270;2022-09-09T08:13:43;461.40;2380.80
16491;DHT22;8356;51.214;3.270;2022-09-09T08:16:12;461.50;2380.80
16491;DHT22;8356;51.214;3.270;2022-09-09T08:18:37;461.70;2380.80
16491;DHT22;8356;51.214;3.270;2022-09-09T08:21:17;461.70;2380.80
16491;DHT22;8356;51.214;3.270;2022-09-09T08:23:45;461.70;2380.80
16491;DHT22;8356;51.214;3.270;2022-09-09T08:26:22;461.70;2380.80
16491;DHT22;8356;51.214;3.270;2022-09-09T08:28:53;461.70;2380.80
16491;DHT22;8356;51.214;3.270;2022-09-09T08:31:25;461.70;2380.80
16491;DHT22;8356;51.214;3.270;2022-09-09T08:33:51;461.70;2380.80
16491;DHT22;8356;51.214;3.270;2022-09-09T08:36:19;461.70;2380.80
16491;DHT22;8356;51.214;3.270;2022-09-09T08:38:54;461.70;2380.80
16491;DHT22;8356;51.214;3.270;2022-09-09T08:52:28;487.00;2380.80
16491;DHT22;8356;51.214;3.270;2022-09-09T08:57:50;487.20;2380.80
16491;DHT22;8356;51.214;3.270;2022-09-09T09:00:17;487.30;2380.80
16491;DHT22;8356;51.214;3.270;2022-09-09T09:08:48;512.60;2380.80
16491;DHT22;8356;51.214;3.270;2022-09-09T09:11:18;537.70;2406.40
16491;DHT22;8356;51.214;3.270;2022-09-09T09:14:03;537.70;2406.40
16491;DHT22;8356;51.214;3.270;2022-09-09T09:16:54;537.70;2406.40
16491;DHT22;8356;51.214;3.270;2022-09-09T09:19:22;512.90;2380.80
16491;DHT22;8356;51.214;3.270;2022-09-09T09:26:44;512.70;2380.80
16491;DHT22;8356;51.214;3.270;2022-09-09T09:29:13;512.80;2380.80
16491;DHT22;8356;51.214;3.270;2022-09-09T09:31:45;512.90;2380.80
16491;DHT22;8356;51.214;3.270;2022-09-09T09:34:13;537.80;2406.40
16491;DHT22;8356;51.214;3.270;2022-09-09T09:36:42;537.90;2406.40
16491;DHT22;8356;51.214;3.270;2022-09-09T09:39:09;538.10;2406.40
16491;DHT22;8356;51.214;3.270;2022-09-09T09:41:41;538.00;2406.40
16491;DHT22;8356;51.214;3.270;2022-09-09T09:44:28;537.90;2406.40
16491;DHT22;8356;51.214;3.270;2022-09-09T09:47:12;537.90;2406.40
16491;DHT22;8356;51.214;3.270;2022-09-09T09:49:39;537.80;2406.40
16491;DHT22;8356;51.214;3.270;2022-09-09T09:52:17;537.80;2406.40
16491;DHT22;8356;51.214;3.270;2022-09-09T09:54:46;537.70;2406.40
16491;DHT22;8356;51.214;3.270;2022-09-09T09:57:14;537.70;2406.40
16491;DHT22;8356;51.214;3.270;2022-09-09T09:59:41;537.70;2406.40
16491;DHT22;8356;51.214;3.270;2022-09-09T10:02:20;537.70;2406.40
16491;DHT22;8356;51.214;3.270;2022-09-09T10:04:48;537.90;2406.40
16491;DHT22;8356;51.214;3.270;2022-09-09T10:07:21;537.90;2406.40
16491;DHT22;8356;51.214;3.270;2022-09-09T10:09:55;537.90;2406.40
16491;DHT22;8356;51.214;3.270;2022-09-09T10:12:59;537.90;2406.40
16491;DHT22;8356;51.214;3.270;2022-09-09T10:15:56;537.80;2406.40
16491;DHT22;8356;51.214;3.270;2022-09-09T10:18:47;537.80;2406.40
16491;DHT22;8356;51.214;3.270;2022-09-09T10:27:55;537.60;2406.40
16491;DHT22;8356;51.214;3.270;2022-09-09T10:30:04;512.90;2380.80
16491;DHT22;8356;51.214;3.270;2022-09-09T10:41:03;512.40;2380.80
16491;DHT22;8356;51.214;3.270;2022-09-09T11:00:10;487.30;2380.80
16491;DHT22;8356;51.214;3.270;2022-09-09T11:02:40;487.10;2380.80
16491;DHT22;8356;51.214;3.270;2022-09-09T11:05:38;487.10;2380.80
16491;DHT22;8356;51.214;3.270;2022-09-09T11:08:10;487.10;2380.80
16491;DHT22;8356;51.214;3.270;2022-09-09T11:19:16;487.00;2380.80
16491;DHT22;8356;51.214;3.270;2022-09-09T11:21:47;487.10;2380.80
16491;DHT22;8356;51.214;3.270;2022-09-09T11:24:33;487.20;2380.80
16491;DHT22;8356;51.214;3.270;2022-09-09T11:27:07;512.00;2380.80
16491;DHT22;8356;51.214;3.270;2022-09-09T11:30:16;512.10;2380.80
16491;DHT22;8356;51.214;3.270;2022-09-09T11:36:19;512.10;2380.80
16491;DHT22;8356;51.214;3.270;2022-09-09T11:41:52;512.00;2380.80
16491;DHT22;8356;51.214;3.270;2022-09-09T11:44:28;512.00;2380.80
16491;DHT22;8356;51.214;3.270;2022-09-09T11:46:55;512.00;2380.80
16491;DHT22;8356;51.214;3.270;2022-09-09T11:49:40;487.30;2380.80
16491;DHT22;8356;51.214;3.270;2022-09-09T11:52:36;512.00;2380.80
16491;DHT22;8356;51.214;3.270;2022-09-09T11:55:10;512.00;2380.80
16491;DHT22;8356;51.214;3.270;2022-09-09T11:57:39;512.00;2380.80
16491;DHT22;8356;51.214;3.270;2022-09-09T12:00:06;512.10;2380.80
16491;DHT22;8356;51.214;3.270;2022-09-09T12:02:31;512.10;2380.80
16491;DHT22;8356;51.214;3.270;2022-09-09T12:05:02;512.10;2380.80
16491;DHT22;8356;51.214;3.270;2022-09-09T12:07:38;512.40;2380.80
16491;DHT22;8356;51.214;3.270;2022-09-09T12:10:17;537.60;2406.40
16491;DHT22;8356;51.214;3.270;2022-09-09T12:12:44;537.80;2406.40
16491;DHT22;8356;51.214;3.270;2022-09-09T12:17:43;537.70;2406.40
16491;DHT22;8356;51.214;3.270;2022-09-09T12:31:44;538.50;2406.40
16491;DHT22;8356;51.214;3.270;2022-09-09T12:34:24;538.30;2406.40
16491;DHT22;8356;51.214;3.270;2022-09-09T12:36:58;537.90;2406.40
16491;DHT22;8356;51.214;3.270;2022-09-09T12:39:37;537.70;2406.40
16491;DHT22;8356;51.214;3.270;2022-09-09T12:42:04;512.80;2380.80
16491;DHT22;8356;51.214;3.270;2022-09-09T12:44:30;512.60;2380.80
16491;DHT22;8356;51.214;3.270;2022-09-09T12:47:00;512.60;2380.80
16491;DHT22;8356;51.214;3.270;2022-09-09T12:49:36;512.30;2380.80
16491;DHT22;8356;51.214;3.270;2022-09-09T12:52:32;512.00;2380.80
16491;DHT22;8356;51.214;3.270;2022-09-09T12:55:03;512.00;2380.80
16491;DHT22;8356;51.214;3.270;2022-09-09T12:57:36;512.00;2380.80
16491;DHT22;8356;51.214;3.270;2022-09-09T13:03:14;512.20;2380.80
16491;DHT22;8356;51.214;3.270;2022-09-09T13:05:37;512.30;2380.80
16491;DHT22;8356;51.214;3.270;2022-09-09T13:08:08;512.30;2380.80
16491;DHT22;8356;51.214;3.270;2022-09-09T13:10:52;512.60;2380.80
16491;DHT22;8356;51.214;3.270;2022-09-09T13:13:37;512.70;2380.80
16491;DHT22;8356;51.214;3.270;2022-09-09T13:16:04;512.80;2380.80
16491;DHT22;8356;51.214;3.270;2022-09-09T13:18:34;512.80;2380.80
16491;DHT22;8356;51.214;3.270;2022-09-09T13:21:01;512.80;2380.80
16491;DHT22;8356;51.214;3.270;2022-09-09T13:23:30;512.80;2380.80
16491;DHT22;8356;51.214;3.270;2022-09-09T13:26:02;512.90;2380.80
16491;DHT22;8356;51.214;3.270;2022-09-09T13:28:30;537.60;2406.40
16491;DHT22;8356;51.214;3.270;2022-09-09T13:31:04;537.80;2406.40
16491;DHT22;8356;51.214;3.270;2022-09-09T13:33:37;537.90;2406.40
16491;DHT22;8356;51.214;3.270;2022-09-09T13:36:05;537.80;2406.40
16491;DHT22;8356;51.214;3.270;2022-09-09T13:38:33;537.80;2406.40
16491;DHT22;8356;51.214;3.270;2022-09-09T13:41:03;537.80;2406.40
16491;DHT22;8356;51.214;3.270;2022-09-09T13:43:38;537.70;2406.40
16491;DHT22;8356;51.214;3.270;2022-09-09T13:46:40;537.70;2406.40
16491;DHT22;8356;51.214;3.270;2022-09-09T13:51:38;512.90;2380.80
16491;DHT22;8356;51.214;3.270;2022-09-09T13:54:09;512.90;2380.80
16491;DHT22;8356;51.214;3.270;2022-09-09T13:56:36;512.90;2380.80
16491;DHT22;8356;51.214;3.270;2022-09-09T13:59:04;512.90;2380.80
16491;DHT22;8356;51.214;3.270;2022-09-09T14:01:30;512.80;2380.80
16491;DHT22;8356;51.214;3.270;2022-09-09T14:03:56;512.90;2380.80
16491;DHT22;8356;51.214;3.270;2022-09-09T14:06:22;512.90;2380.80
16491;DHT22;8356;51.214;3.270;2022-09-09T14:08:52;512.30;2380.80
16491;DHT22;8356;51.214;3.270;2022-09-09T14:11:18;512.80;2380.80
16491;DHT22;8356;51.214;3.270;2022-09-09T14:13:44;512.60;2380.80
16491;DHT22;8356;51.214;3.270;2022-09-09T14:16:10;512.50;2380.80
16491;DHT22;8356;51.214;3.270;2022-09-09T14:18:36;512.30;2380.80
16491;DHT22;8356;51.214;3.270;2022-09-09T14:21:03;512.30;2380.80
16491;DHT22;8356;51.214;3.270;2022-09-09T14:23:29;512.30;2380.80
16491;DHT22;8356;51.214;3.270;2022-09-09T14:25:55;512.20;2380.80
16491;DHT22;8356;51.214;3.270;2022-09-09T14:28:21;512.20;2380.80
16491;DHT22;8356;51.214;3.270;2022-09-09T14:30:47;512.20;2380.80
16491;DHT22;8356;51.214;3.270;2022-09-09T14:33:14;512.30;2380.80
16491;DHT22;8356;51.214;3.270;2022-09-09T14:35:42;512.40;2380.80
16491;DHT22;8356;51.214;3.270;2022-09-09T14:38:09;512.60;2380.80
16491;DHT22;8356;51.214;3.270;2022-09-09T14:40:36;512.70;2380.80
16491;DHT22;8356;51.214;3.270;2022-09-09T14:43:02;512.80;2380.80
16491;DHT22;8356;51.214;3.270;2022-09-09T14:45:27;512.80;2380.80
16491;DHT22;8356;51.214;3.270;2022-09-09T14:47:53;512.80;2380.80
16491;DHT22;8356;51.214;3.270;2022-09-09T14:50:20;512.80;2380.80
16491;DHT22;8356;51.214;3.270;2022-09-09T14:52:46;512.80;2380.80
16491;DHT22;8356;51.214;3.270;2022-09-09T14:55:12;512.90;2380.80
16491;DHT22;8356;51.214;3.270;2022-09-09T14:57:38;512.80;2380.80
16491;DHT22;8356;51.214;3.270;2022-09-09T15:00:06;512.90;2380.80
16491;DHT22;8356;51.214;3.270;2022-09-09T15:02:33;512.90;2380.80
16491;DHT22;8356;51.214;3.270;2022-09-09T15:04:58;512.90;2380.80
16491;DHT22;8356;51.214;3.270;2022-09-09T15:07:25;537.60;2406.40
16491;DHT22;8356;51.214;3.270;2022-09-09T15:09:51;537.80;2406.40
16491;DHT22;8356;51.214;3.270;2022-09-09T15:12:17;537.90;2406.40
16491;DHT22;8356;51.214;3.270;2022-09-09T15:14:44;537.90;2406.40
16491;DHT22;8356;51.214;3.270;2022-09-09T15:17:10;537.90;2406.40
16491;DHT22;8356;51.214;3.270;2022-09-09T15:19:36;537.90;2406.40
16491;DHT22;8356;51.214;3.270;2022-09-09T15:22:03;538.00;2406.40
16491;DHT22;8356;51.214;3.270;2022-09-09T15:24:31;538.10;2406.40
16491;DHT22;8356;51.214;3.270;2022-09-09T15:26:57;537.90;2406.40
16491;DHT22;8356;51.214;3.270;2022-09-09T15:29:23;537.90;2406.40
16491;DHT22;8356;51.214;3.270;2022-09-09T15:31:49;537.90;2406.40
16491;DHT22;8356;51.214;3.270;2022-09-09T15:34:14;537.90;2406.40
16491;DHT22;8356;51.214;3.270;2022-09-09T15:36:42;537.80;2406.40
16491;DHT22;8356;51.214;3.270;2022-09-09T15:39:10;537.80;2406.40
16491;DHT22;8356;51.214;3.270;2022-09-09T15:41:38;537.80;2406.40
16491;DHT22;8356;51.214;3.270;2022-09-09T15:44:05;537.80;2406.40
16491;DHT22;8356;51.214;3.270;2022-09-09T15:46:33;537.90;2406.40
16491;DHT22;8356;51.214;3.270;2022-09-09T15:49:08;537.90;2406.40
16491;DHT22;8356;51.214;3.270;2022-09-09T15:51:38;538.00;2406.40
16491;DHT22;8356;51.214;3.270;2022-09-09T15:54:04;538.10;2406.40
16491;DHT22;8356;51.214;3.270;2022-09-09T15:56:30;538.10;2406.40
16491;DHT22;8356;51.214;3.270;2022-09-09T15:58:57;538.10;2406.40
16491;DHT22;8356;51.214;3.270;2022-09-09T16:01:24;538.10;2406.40
16491;DHT22;8356;51.214;3.270;2022-09-09T16:03:50;537.60;2406.40
16491;DHT22;8356;51.214;3.270;2022-09-09T16:06:21;538.20;2406.40
16491;DHT22;8356;51.214;3.270;2022-09-09T16:08:51;538.30;2406.40
16491;DHT22;8356;51.214;3.270;2022-09-09T16:11:23;538.30;2406.40
16491;DHT22;8356;51.214;3.270;2022-09-09T16:13:50;538.50;2406.40
16491;DHT22;8356;51.214;3.270;2022-09-09T16:16:18;538.50;2406.40
16491;DHT22;8356;51.214;3.270;2022-09-09T16:18:53;538.50;2406.40
16491;DHT22;8356;51.214;3.270;2022-09-09T16:21:21;538.50;2406.40
16491;DHT22;8356;51.214;3.270;2022-09-09T16:23:47;538.50;2406.40
16491;DHT22;8356;51.214;3.270;2022-09-09T16:26:16;538.40;2406.40
16491;DHT22;8356;51.214;3.270;2022-09-09T16:28:42;538.30;2406.40
16491;DHT22;8356;51.214;3.270;2022-09-09T16:31:10;538.30;2406.40
16491;DHT22;8356;51.214;3.270;2022-09-09T16:33:36;538.30;2406.40
16491;DHT22;8356;51.214;3.270;2022-09-09T16:36:10;538.30;2406.40
16491;DHT22;8356;51.214;3.270;2022-09-09T16:38:36;538.30;2406.40
16491;DHT22;8356;51.214;3.270;2022-09-09T16:41:04;538.30;2406.40
16491;DHT22;8356;51.214;3.270;2022-09-09T16:43:31;538.30;2406.40
16491;DHT22;8356;51.214;3.270;2022-09-09T16:45:57;538.30;2406.40
16491;DHT22;8356;51.214;3.270;2022-09-09T16:48:26;538.30;2406.40
16491;DHT22;8356;51.214;3.270;2022-09-09T16:50:52;538.30;2406.40
16491;DHT22;8356;51.214;3.270;2022-09-09T16:53:18;538.20;2406.40
16491;DHT22;8356;51.214;3.270;2022-09-09T16:55:44;538.20;2406.40
16491;DHT22;8356;51.214;3.270;2022-09-09T16:58:12;538.30;2406.40
16491;DHT22;8356;51.214;3.270;2022-09-09T17:00:38;538.30;2406.40
16491;DHT22;8356;51.214;3.270;2022-09-09T17:03:04;538.20;2406.40
16491;DHT22;8356;51.214;3.270;2022-09-09T17:05:29;538.20;2406.40
16491;DHT22;8356;51.214;3.270;2022-09-09T17:07:55;538.20;2406.40
16491;DHT22;8356;51.214;3.270;2022-09-09T17:10:25;538.20;2406.40
16491;DHT22;8356;51.214;3.270;2022-09-09T17:12:50;538.20;2406.40
16491;DHT22;8356;51.214;3.270;2022-09-09T17:15:16;538.20;2406.40
16491;DHT22;8356;51.214;3.270;2022-09-09T17:17:44;538.10;2406.40
16491;DHT22;8356;51.214;3.270;2022-09-09T17:20:10;538.10;2406.40
16491;DHT22;8356;51.214;3.270;2022-09-09T17:22:36;537.90;2406.40
16491;DHT22;8356;51.214;3.270;2022-09-09T17:25:02;537.90;2406.40
16491;DHT22;8356;51.214;3.270;2022-09-09T17:27:29;537.90;2406.40
16491;DHT22;8356;51.214;3.270;2022-09-09T17:29:57;537.90;2406.40
16491;DHT22;8356;51.214;3.270;2022-09-09T17:32:22;537.80;2406.40
16491;DHT22;8356;51.214;3.270;2022-09-09T17:34:48;537.80;2406.40
16491;DHT22;8356;51.214;3.270;2022-09-09T17:37:14;537.80;2406.40
16491;DHT22;8356;51.214;3.270;2022-09-09T17:39:39;537.70;2406.40
16491;DHT22;8356;51.214;3.270;2022-09-09T17:42:05;537.70;2406.40